Terminal Aerodrome Forecast
Issued by NWS

Current Version | Previous Version | Graphics & Text | Print | Product List | Glossary On
Versions: 1 2 3 4 5 6 7 8 9 10 11 12 13 14 15 16 17 18 19 20 21 22 23 24
000
FTUS41 KILN 271723
TAFLUK
TAF
KLUK 271723Z 2718/2818 01007KT P6SM FEW035 BKN050
     FM272200 03005KT P6SM SCT050
     FM280000 00000KT P6SM SKC
     FM280400 00000KT 3SM BR SKC
     FM280700 00000KT 1SM BR SKC
     FM281300 12004KT P6SM SKC=

USA.gov is the U.S. government's official web portal to all federal, state and local government web resources and services.